createdAt,value
2019-02-27T00:00:00.636Z,14.30
2019-02-27T00:01:31.627Z,14.30
2019-02-27T00:02:57.319Z,14.30
2019-02-27T00:04:22.698Z,14.30
2019-02-27T00:05:48.412Z,14.30
2019-02-27T00:07:13.802Z,14.20
2019-02-27T00:08:39.204Z,14.20
2019-02-27T00:10:06.175Z,14.20
2019-02-27T00:11:32.160Z,14.30
2019-02-27T00:12:57.621Z,14.20
2019-02-27T00:14:23.039Z,14.20
2019-02-27T00:15:48.499Z,14.20
2019-02-27T00:17:15.095Z,14.20
2019-02-27T00:18:41.047Z,14.20
2019-02-27T00:20:06.949Z,14.20
2019-02-27T00:21:32.443Z,14.20
2019-02-27T00:22:57.870Z,14.20
2019-02-27T00:24:23.346Z,14.20
2019-02-27T00:25:48.811Z,14.20
2019-02-27T00:27:14.743Z,14.20
2019-02-27T00:28:40.687Z,14.20
2019-02-27T00:30:06.584Z,14.20
2019-02-27T00:31:32.069Z,14.20
2019-02-27T00:32:57.566Z,14.10
2019-02-27T00:34:22.949Z,14.10
2019-02-27T00:35:48.419Z,14.10
2019-02-27T00:37:13.853Z,14.10
2019-02-27T00:38:39.273Z,14.20
2019-02-27T00:40:05.610Z,14.10
2019-02-27T00:41:31.640Z,14.00
2019-02-27T00:42:57.088Z,14.00
2019-02-27T00:44:22.498Z,14.00
2019-02-27T00:45:47.920Z,14.00
2019-02-27T00:47:13.385Z,14.00
2019-02-27T00:48:38.803Z,14.00
2019-02-27T00:50:06.597Z,14.00
2019-02-27T00:51:31.487Z,14.00
2019-02-27T00:52:56.970Z,14.00
2019-02-27T00:54:22.402Z,14.00
2019-02-27T00:55:47.804Z,14.10
2019-02-27T00:57:15.115Z,14.00
2019-02-27T00:58:40.315Z,14.00
2019-02-27T01:00:07.636Z,14.00
2019-02-27T01:01:33.089Z,14.00
2019-02-27T01:02:58.638Z,14.00
2019-02-27T01:04:24.098Z,14.00
2019-02-27T01:05:49.546Z,14.00
2019-02-27T01:07:20.277Z,14.00
2019-02-27T01:08:43.769Z,14.00
2019-02-27T01:10:11.991Z,14.00
2019-02-27T01:11:36.866Z,14.00
2019-02-27T01:13:02.365Z,14.00
2019-02-27T01:14:27.827Z,13.90
2019-02-27T01:15:53.293Z,13.90
2019-02-27T01:17:20.939Z,13.90
2019-02-27T01:18:45.798Z,13.90
2019-02-27T01:20:12.040Z,13.90
2019-02-27T01:21:37.530Z,13.90
2019-02-27T01:23:02.997Z,13.90
2019-02-27T01:24:28.456Z,13.90
2019-02-27T01:25:56.126Z,13.90
2019-02-27T01:27:20.940Z,13.90
2019-02-27T01:28:46.347Z,13.90
2019-02-27T01:30:13.016Z,13.90
2019-02-27T01:31:38.494Z,13.90
2019-02-27T01:33:04.787Z,13.80
2019-02-27T01:34:30.367Z,13.80
2019-02-27T01:35:55.807Z,13.80
2019-02-27T01:37:21.408Z,13.80
2019-02-27T01:38:47.008Z,13.80
2019-02-27T01:40:17.149Z,13.80
2019-02-27T01:41:40.566Z,13.80
2019-02-27T01:43:06.511Z,13.80
2019-02-27T01:44:32.019Z,13.80
2019-02-27T01:45:57.397Z,13.80
2019-02-27T01:47:24.345Z,13.70
2019-02-27T01:48:49.799Z,13.70
2019-02-27T01:50:34.924Z,13.70
2019-02-27T01:52:02.061Z,13.70
2019-02-27T01:53:27.732Z,13.70
2019-02-27T01:54:53.237Z,13.70
2019-02-27T01:56:18.678Z,13.70
2019-02-27T01:57:44.114Z,13.70
2019-02-27T01:59:09.558Z,13.70
2019-02-27T02:00:35.248Z,13.70
2019-02-27T02:02:01.104Z,13.70
2019-02-27T02:03:27.770Z,13.60
2019-02-27T02:04:53.885Z,13.60
2019-02-27T02:06:19.305Z,13.60
2019-02-27T02:07:47.638Z,13.60
2019-02-27T02:09:34.094Z,13.50
2019-02-27T02:11:01.376Z,13.60
2019-02-27T02:12:29.877Z,13.50
2019-02-27T02:14:28.555Z,13.60
2019-02-27T02:16:14.795Z,13.50
2019-02-27T02:18:22.288Z,13.50
2019-02-27T02:20:32.474Z,13.50
2019-02-27T02:22:45.851Z,13.50
2019-02-27T02:24:51.910Z,13.40
2019-02-27T02:26:59.527Z,13.40
2019-02-27T02:28:56.590Z,13.40
2019-02-27T02:30:51.690Z,13.40
2019-02-27T02:32:39.906Z,13.40
2019-02-27T02:34:41.021Z,13.30
2019-02-27T02:36:25.027Z,13.30
2019-02-27T02:38:26.037Z,13.30
2019-02-27T02:40:12.063Z,13.30
2019-02-27T02:42:14.398Z,13.30
2019-02-27T02:44:11.212Z,13.30
2019-02-27T02:46:08.512Z,13.30
2019-02-27T02:48:03.835Z,13.30
2019-02-27T02:49:55.802Z,13.20
2019-02-27T02:51:50.091Z,13.20
2019-02-27T02:53:35.173Z,13.30
2019-02-27T02:55:47.479Z,13.20
2019-02-27T02:58:01.493Z,13.30
2019-02-27T02:59:49.509Z,13.20
2019-02-27T03:01:41.697Z,13.30
2019-02-27T03:03:36.138Z,13.30
2019-02-27T03:05:43.897Z,13.30
2019-02-27T03:07:45.881Z,13.30
2019-02-27T03:09:18.973Z,13.30
2019-02-27T03:11:09.390Z,13.30
2019-02-27T03:13:06.003Z,13.30
2019-02-27T03:15:02.152Z,13.30
2019-02-27T03:16:59.932Z,13.30
2019-02-27T03:19:09.108Z,13.30
2019-02-27T03:20:44.346Z,13.30
2019-02-27T03:22:16.237Z,13.30
2019-02-27T03:24:46.576Z,13.30
2019-02-27T03:26:18.856Z,13.30
2019-02-27T03:28:24.555Z,13.20
2019-02-27T03:30:36.247Z,13.20
2019-02-27T03:32:07.674Z,13.20
2019-02-27T03:34:25.557Z,13.20
2019-02-27T03:36:26.843Z,13.20
2019-02-27T03:38:30.220Z,13.20
2019-02-27T03:40:30.705Z,13.20
2019-02-27T03:42:30.855Z,13.20
2019-02-27T03:44:24.617Z,13.20
2019-02-27T03:46:10.876Z,13.10
2019-02-27T03:47:55.747Z,13.10
2019-02-27T03:50:05.431Z,13.10
2019-02-27T03:52:06.796Z,13.10
2019-02-27T03:53:55.963Z,13.10
2019-02-27T03:55:43.598Z,13.10
2019-02-27T03:57:54.849Z,13.10
2019-02-27T04:00:09.540Z,13.20
2019-02-27T04:02:10.811Z,13.20
2019-02-27T04:04:10.857Z,13.10
2019-02-27T04:06:28.943Z,13.20
2019-02-27T04:08:47.156Z,13.10
2019-02-27T04:10:12.586Z,13.10
2019-02-27T04:11:41.563Z,13.00
2019-02-27T04:13:05.085Z,13.00
2019-02-27T04:14:40.424Z,13.10
2019-02-27T04:16:01.727Z,13.10
2019-02-27T04:17:28.931Z,13.10
2019-02-27T04:18:54.336Z,13.10
2019-02-27T04:20:19.770Z,13.10
2019-02-27T04:21:45.188Z,13.10
2019-02-27T04:23:12.439Z,13.00
2019-02-27T04:24:37.711Z,13.00
2019-02-27T04:26:05.790Z,13.10
2019-02-27T04:27:30.287Z,13.10
2019-02-27T04:28:55.730Z,13.10
2019-02-27T04:30:21.151Z,13.00
2019-02-27T04:31:46.620Z,13.00
2019-02-27T04:33:12.055Z,12.90
2019-02-27T04:34:37.532Z,13.00
2019-02-27T04:36:03.067Z,13.00
2019-02-27T04:37:28.475Z,13.00
2019-02-27T04:38:53.889Z,13.00
2019-02-27T04:40:19.351Z,13.00
2019-02-27T04:41:44.746Z,13.00
2019-02-27T04:43:10.259Z,13.00
2019-02-27T04:44:35.963Z,13.00
2019-02-27T04:46:02.756Z,13.00
2019-02-27T04:47:29.061Z,13.00
2019-02-27T04:48:55.251Z,12.90
2019-02-27T04:50:20.692Z,12.90
2019-02-27T04:51:48.000Z,12.90
2019-02-27T04:53:13.184Z,12.90
2019-02-27T04:54:41.270Z,12.90
2019-02-27T04:56:05.700Z,12.90
2019-02-27T04:57:33.712Z,13.00
2019-02-27T04:59:00.475Z,12.90
2019-02-27T05:00:26.231Z,12.90
2019-02-27T05:01:52.290Z,12.90
2019-02-27T05:03:17.755Z,12.90
2019-02-27T05:04:44.535Z,12.90
2019-02-27T05:06:24.551Z,12.90
2019-02-27T05:07:54.286Z,12.90
2019-02-27T05:09:20.597Z,12.90
2019-02-27T05:10:46.134Z,12.90
2019-02-27T05:12:11.575Z,12.80
2019-02-27T05:13:37.015Z,12.80
2019-02-27T05:15:04.253Z,12.80
2019-02-27T05:16:29.540Z,12.90
2019-02-27T05:17:55.751Z,12.90
2019-02-27T05:19:21.750Z,12.80
2019-02-27T05:20:47.205Z,12.80
2019-02-27T05:22:12.619Z,12.80
2019-02-27T05:23:38.075Z,12.80
2019-02-27T05:25:03.533Z,12.80
2019-02-27T05:26:28.974Z,12.80
2019-02-27T05:27:54.406Z,12.80
2019-02-27T05:29:19.890Z,12.80
2019-02-27T05:30:45.915Z,12.80
2019-02-27T05:32:11.399Z,12.80
2019-02-27T05:33:39.719Z,12.80
2019-02-27T05:35:04.192Z,12.80
2019-02-27T05:36:31.744Z,12.90
2019-02-27T05:37:56.766Z,12.80
2019-02-27T05:39:22.241Z,12.80
2019-02-27T05:40:47.812Z,12.80
2019-02-27T05:42:13.273Z,12.80
2019-02-27T05:43:38.712Z,12.80
2019-02-27T05:45:04.345Z,12.80
2019-02-27T05:46:29.793Z,12.80
2019-02-27T05:47:55.211Z,12.90
2019-02-27T05:49:20.638Z,12.80
2019-02-27T05:50:46.065Z,12.80
2019-02-27T05:52:11.871Z,12.80
2019-02-27T05:53:38.547Z,12.80
2019-02-27T05:55:06.525Z,12.80
2019-02-27T05:56:31.163Z,12.80
2019-02-27T05:57:56.625Z,12.80
2019-02-27T05:59:22.074Z,12.80
2019-02-27T06:00:47.576Z,12.80
2019-02-27T06:02:13.033Z,12.80
2019-02-27T06:03:38.558Z,12.80
2019-02-27T06:05:04.055Z,12.80
2019-02-27T06:06:29.483Z,12.80
2019-02-27T06:07:55.146Z,12.80
2019-02-27T06:09:20.581Z,12.80
2019-02-27T06:10:46.000Z,12.80
2019-02-27T06:12:11.451Z,12.80
2019-02-27T06:13:36.895Z,12.80
2019-02-27T06:15:02.411Z,12.80
2019-02-27T06:16:27.809Z,12.80
2019-02-27T06:17:53.255Z,12.80
2019-02-27T06:19:18.698Z,12.70
2019-02-27T06:20:44.170Z,12.70
2019-02-27T06:22:09.630Z,12.70
2019-02-27T06:23:35.320Z,12.70
2019-02-27T06:25:02.182Z,12.70
2019-02-27T06:26:32.173Z,12.70
2019-02-27T06:27:54.695Z,12.70
2019-02-27T06:29:23.379Z,12.70
2019-02-27T06:30:47.227Z,12.70
2019-02-27T06:32:12.940Z,12.70
2019-02-27T06:33:38.362Z,12.70
2019-02-27T06:35:03.922Z,12.70
2019-02-27T06:36:29.444Z,12.70
2019-02-27T06:37:54.845Z,12.70
2019-02-27T06:39:20.278Z,12.70
2019-02-27T06:40:45.755Z,12.70
2019-02-27T06:42:11.213Z,12.70
2019-02-27T06:43:36.704Z,12.70
2019-02-27T06:45:02.163Z,12.70
2019-02-27T06:46:27.618Z,12.70
2019-02-27T06:47:53.022Z,12.70
2019-02-27T06:49:18.458Z,12.70
2019-02-27T06:50:43.901Z,12.70
2019-02-27T06:52:09.869Z,12.70
2019-02-27T06:53:35.394Z,12.70
2019-02-27T06:55:00.942Z,12.70
2019-02-27T06:56:26.426Z,12.70
2019-02-27T06:57:51.873Z,12.70
2019-02-27T06:59:18.055Z,12.70
2019-02-27T07:00:43.766Z,12.70
2019-02-27T07:02:09.189Z,12.70
2019-02-27T07:03:34.664Z,12.70
2019-02-27T07:05:00.293Z,12.70
2019-02-27T07:06:25.771Z,12.70
2019-02-27T07:07:51.370Z,12.80
2019-02-27T07:09:16.803Z,12.80
2019-02-27T07:10:42.247Z,12.70
2019-02-27T07:12:07.774Z,12.80
2019-02-27T07:13:33.153Z,12.70
2019-02-27T07:14:58.729Z,12.70
2019-02-27T07:16:24.245Z,12.70
2019-02-27T07:17:49.825Z,12.70
2019-02-27T07:19:15.758Z,12.70
2019-02-27T07:20:41.876Z,12.70
2019-02-27T07:22:09.203Z,12.70
2019-02-27T07:23:35.303Z,12.70
2019-02-27T07:25:00.812Z,12.70
2019-02-27T07:26:26.418Z,12.70
2019-02-27T07:27:51.882Z,12.80
2019-02-27T07:29:21.658Z,12.80
2019-02-27T07:30:44.390Z,12.80
2019-02-27T07:32:09.859Z,12.80
2019-02-27T07:33:35.242Z,12.90
2019-02-27T07:35:00.713Z,12.90
2019-02-27T07:36:26.300Z,12.90
2019-02-27T07:37:51.839Z,12.90
2019-02-27T07:39:17.217Z,12.90
2019-02-27T07:40:43.524Z,13.00
2019-02-27T07:42:09.072Z,13.00
2019-02-27T07:43:34.952Z,13.00
2019-02-27T07:45:00.349Z,13.00
2019-02-27T07:46:25.764Z,13.00
2019-02-27T07:47:51.321Z,13.00
2019-02-27T07:49:16.764Z,13.00
2019-02-27T07:50:42.230Z,13.10
2019-02-27T07:52:07.666Z,13.10
2019-02-27T07:53:33.149Z,13.10
2019-02-27T07:54:58.631Z,13.20
2019-02-27T07:56:24.066Z,13.20
2019-02-27T07:57:49.555Z,13.20
2019-02-27T07:59:14.982Z,13.20
2019-02-27T08:00:42.714Z,13.30
2019-02-27T08:02:07.584Z,13.30
2019-02-27T08:03:33.037Z,13.40
2019-02-27T08:04:58.488Z,13.40
2019-02-27T08:06:24.036Z,13.50
2019-02-27T08:07:49.951Z,13.50
2019-02-27T08:09:15.542Z,13.50
2019-02-27T08:10:41.077Z,13.60
2019-02-27T08:12:06.685Z,13.60
2019-02-27T08:13:32.123Z,13.70
2019-02-27T08:14:57.615Z,13.70
2019-02-27T08:16:23.066Z,13.80
2019-02-27T08:17:48.951Z,13.80
2019-02-27T08:19:14.322Z,13.80
2019-02-27T08:20:39.778Z,13.90
2019-02-27T08:22:05.327Z,13.90
2019-02-27T08:23:30.783Z,14.00
2019-02-27T08:24:56.210Z,14.10
2019-02-27T08:26:21.621Z,14.10
2019-02-27T08:27:47.302Z,14.10
2019-02-27T08:29:12.767Z,14.10
2019-02-27T08:30:38.687Z,14.20
2019-02-27T08:32:05.504Z,14.20
2019-02-27T08:33:31.199Z,14.30
2019-02-27T08:34:56.642Z,14.30
2019-02-27T08:36:22.090Z,14.40
2019-02-27T08:37:47.754Z,14.40
2019-02-27T08:39:13.280Z,14.50
2019-02-27T08:40:38.785Z,14.50
2019-02-27T08:42:07.210Z,14.50
2019-02-27T08:43:32.696Z,14.60
2019-02-27T08:44:58.377Z,14.60
2019-02-27T08:46:23.823Z,14.70
2019-02-27T08:47:49.979Z,14.70
2019-02-27T08:49:15.455Z,14.70
2019-02-27T08:50:40.909Z,14.80
2019-02-27T08:52:08.373Z,14.80
2019-02-27T08:53:34.535Z,14.80
2019-02-27T08:55:05.606Z,14.90
2019-02-27T08:56:31.044Z,14.90
2019-02-27T08:57:57.171Z,14.90
2019-02-27T08:59:22.683Z,14.90
2019-02-27T09:00:48.635Z,15.00
2019-02-27T09:02:15.091Z,15.00
2019-02-27T09:03:40.624Z,15.10
2019-02-27T09:05:06.522Z,15.10
2019-02-27T09:06:32.481Z,15.20
2019-02-27T09:07:57.903Z,15.20
2019-02-27T09:09:23.398Z,15.20
2019-02-27T09:10:48.879Z,15.20
2019-02-27T09:12:14.458Z,15.30
2019-02-27T09:13:41.574Z,15.40
2019-02-27T09:15:08.762Z,15.40
2019-02-27T09:16:34.376Z,15.40
2019-02-27T09:18:01.782Z,15.40
2019-02-27T09:19:32.013Z,15.40
2019-02-27T09:20:58.455Z,15.40
2019-02-27T09:22:24.327Z,15.50
2019-02-27T09:23:49.785Z,15.60
2019-02-27T09:25:15.684Z,15.60
2019-02-27T09:26:42.341Z,15.60
2019-02-27T09:28:09.261Z,15.70
2019-02-27T09:29:35.023Z,15.70
2019-02-27T09:31:04.244Z,15.70
2019-02-27T09:32:28.132Z,15.70
2019-02-27T09:33:53.995Z,15.80
2019-02-27T09:35:19.481Z,15.90
2019-02-27T09:36:44.916Z,15.80
2019-02-27T09:38:10.393Z,15.90
2019-02-27T09:39:36.022Z,15.90
2019-02-27T09:41:01.483Z,15.90
2019-02-27T09:42:26.962Z,15.90
2019-02-27T09:43:52.476Z,15.90
2019-02-27T09:45:21.265Z,15.90
2019-02-27T09:46:46.669Z,16.00
2019-02-27T09:48:12.105Z,16.00
2019-02-27T09:49:37.959Z,16.10
2019-02-27T09:51:05.004Z,16.20
2019-02-27T09:52:30.831Z,16.20
2019-02-27T09:53:56.359Z,16.20
2019-02-27T09:55:21.893Z,16.20
2019-02-27T09:56:47.338Z,16.20
2019-02-27T09:58:13.146Z,16.20
2019-02-27T09:59:39.993Z,16.20
2019-02-27T10:01:16.453Z,16.30
2019-02-27T10:02:43.149Z,16.30
2019-02-27T10:04:09.673Z,16.30
2019-02-27T10:05:36.743Z,16.30
2019-02-27T10:07:02.664Z,16.30
2019-02-27T10:08:28.200Z,16.40
2019-02-27T10:09:53.658Z,16.40
2019-02-27T10:11:22.118Z,16.40
2019-02-27T10:12:46.234Z,16.40
2019-02-27T10:14:14.147Z,16.40
2019-02-27T10:15:38.846Z,16.50
2019-02-27T10:17:06.808Z,16.50
2019-02-27T10:18:31.492Z,16.50
2019-02-27T10:20:01.408Z,16.50
2019-02-27T10:21:24.078Z,16.50
2019-02-27T10:22:49.590Z,16.50
2019-02-27T10:24:15.079Z,16.50
2019-02-27T10:25:43.274Z,16.50
2019-02-27T10:27:07.619Z,16.50
2019-02-27T10:28:35.809Z,16.50
2019-02-27T10:30:00.222Z,16.50
2019-02-27T10:31:26.220Z,16.50
2019-02-27T10:32:52.396Z,16.40
2019-02-27T10:34:18.315Z,16.30
2019-02-27T10:35:43.759Z,16.40
2019-02-27T10:37:12.849Z,16.40
2019-02-27T10:38:40.252Z,16.40
2019-02-27T10:40:03.491Z,16.40
2019-02-27T10:41:32.113Z,16.50
2019-02-27T10:43:09.060Z,16.50
2019-02-27T10:44:33.799Z,16.50
2019-02-27T10:46:00.400Z,16.50
2019-02-27T10:47:26.480Z,16.60
2019-02-27T10:48:51.966Z,16.60
2019-02-27T10:50:17.519Z,16.60
2019-02-27T10:51:43.770Z,16.70
2019-02-27T10:53:09.800Z,16.70
2019-02-27T10:54:37.033Z,16.70
2019-02-27T10:56:02.678Z,16.70
2019-02-27T10:57:31.490Z,16.70
2019-02-27T10:58:55.426Z,16.80
2019-02-27T11:00:27.820Z,16.80
2019-02-27T11:01:53.365Z,16.70
2019-02-27T11:03:19.203Z,16.70
2019-02-27T11:04:45.690Z,16.80
2019-02-27T11:06:13.544Z,16.80
2019-02-27T11:07:39.357Z,16.70
2019-02-27T11:09:06.849Z,16.70
2019-02-27T11:10:32.610Z,16.80
2019-02-27T11:11:58.575Z,16.80
2019-02-27T11:13:24.164Z,16.80
2019-02-27T11:14:53.144Z,16.80
2019-02-27T11:16:21.237Z,16.80
2019-02-27T11:17:45.865Z,16.70
2019-02-27T11:19:14.104Z,16.70
2019-02-27T11:20:38.615Z,16.70
2019-02-27T11:22:04.142Z,16.70
2019-02-27T11:23:29.610Z,16.70
2019-02-27T11:24:55.355Z,16.70
2019-02-27T11:26:21.713Z,16.80
2019-02-27T11:27:47.763Z,16.80
2019-02-27T11:29:17.612Z,16.80
2019-02-27T11:30:51.136Z,16.80
2019-02-27T11:32:16.816Z,16.90
2019-02-27T11:33:46.336Z,16.90
2019-02-27T11:35:12.104Z,16.80
2019-02-27T11:36:39.673Z,16.80
2019-02-27T11:38:08.571Z,16.80
2019-02-27T11:39:34.092Z,16.80
2019-02-27T11:41:00.751Z,16.90
2019-02-27T11:42:28.965Z,16.90
2019-02-27T11:43:56.972Z,16.90
2019-02-27T11:45:25.423Z,16.90
2019-02-27T11:46:58.702Z,16.90
2019-02-27T11:48:20.361Z,16.80
2019-02-27T11:49:45.763Z,16.80
2019-02-27T11:51:11.328Z,16.80
2019-02-27T11:52:48.773Z,16.70
2019-02-27T11:54:15.810Z,16.80
2019-02-27T11:55:41.390Z,16.70
2019-02-27T11:57:08.875Z,16.70
2019-02-27T11:58:35.227Z,16.70
2019-02-27T12:00:01.403Z,16.60
2019-02-27T12:01:27.410Z,16.70
2019-02-27T12:02:52.987Z,16.70
2019-02-27T12:04:19.563Z,16.70
2019-02-27T12:05:45.805Z,16.70
2019-02-27T12:07:17.231Z,16.70
2019-02-27T12:08:40.871Z,16.70
2019-02-27T12:10:08.952Z,16.70
2019-02-27T12:11:34.972Z,16.70
2019-02-27T12:13:01.314Z,16.70
2019-02-27T12:14:27.491Z,16.70
2019-02-27T12:15:53.166Z,16.70
2019-02-27T12:17:19.075Z,16.80
2019-02-27T12:18:44.831Z,16.70
2019-02-27T12:20:11.219Z,16.70
2019-02-27T12:21:36.654Z,16.70
2019-02-27T12:23:02.633Z,16.80
2019-02-27T12:24:28.503Z,16.70
2019-02-27T12:25:53.978Z,16.80
2019-02-27T12:27:37.798Z,16.80
2019-02-27T12:28:47.621Z,16.90
2019-02-27T12:30:18.817Z,16.90
2019-02-27T12:31:47.899Z,16.90
2019-02-27T12:33:11.829Z,16.90
2019-02-27T12:34:37.807Z,16.90
2019-02-27T12:36:03.442Z,17.00
2019-02-27T12:37:34.065Z,16.90
2019-02-27T12:38:55.942Z,16.90
2019-02-27T12:40:25.015Z,17.00
2019-02-27T12:41:55.762Z,17.00
2019-02-27T12:43:21.554Z,16.90
2019-02-27T12:44:46.961Z,16.80
2019-02-27T12:46:16.088Z,16.70
2019-02-27T12:47:44.650Z,16.80
2019-02-27T12:49:12.352Z,16.80
2019-02-27T12:50:37.846Z,16.70
2019-02-27T12:52:03.298Z,16.70
2019-02-27T12:53:28.967Z,16.70
2019-02-27T12:54:54.353Z,16.70
2019-02-27T12:56:19.828Z,16.70
2019-02-27T12:57:45.394Z,16.70
2019-02-27T12:59:11.116Z,16.70
2019-02-27T13:00:37.054Z,16.70
2019-02-27T13:02:08.355Z,16.70
2019-02-27T13:03:29.737Z,16.60
2019-02-27T13:04:55.141Z,16.60
2019-02-27T13:06:20.811Z,16.60
2019-02-27T13:07:46.507Z,16.50
2019-02-27T13:09:14.292Z,16.50
2019-02-27T13:10:40.039Z,16.50
2019-02-27T13:12:05.502Z,16.50
2019-02-27T13:13:31.036Z,16.50
2019-02-27T13:14:56.570Z,16.60
2019-02-27T13:16:22.091Z,16.60
2019-02-27T13:17:47.622Z,16.60
2019-02-27T13:19:13.055Z,16.60
2019-02-27T13:20:38.598Z,16.60
2019-02-27T13:22:07.241Z,16.60
2019-02-27T13:23:32.802Z,16.60
2019-02-27T13:24:58.235Z,16.70
2019-02-27T13:26:25.350Z,16.70
2019-02-27T13:27:50.787Z,16.60
2019-02-27T13:29:16.212Z,16.60
2019-02-27T13:30:42.176Z,16.60
2019-02-27T13:32:07.739Z,16.60
2019-02-27T13:33:35.818Z,16.50
2019-02-27T13:35:00.446Z,16.50
2019-02-27T13:36:25.888Z,16.50
2019-02-27T13:37:51.398Z,16.40
2019-02-27T13:39:16.867Z,16.40
2019-02-27T13:40:42.422Z,16.40
2019-02-27T13:42:07.945Z,16.40
2019-02-27T13:43:33.666Z,16.40
2019-02-27T13:44:59.087Z,16.30
2019-02-27T13:46:24.583Z,16.30
2019-02-27T13:47:50.262Z,16.20
2019-02-27T13:49:15.792Z,16.30
2019-02-27T13:50:42.665Z,16.30
2019-02-27T13:52:12.327Z,16.30
2019-02-27T13:53:35.191Z,16.30
2019-02-27T13:55:02.047Z,16.40
2019-02-27T13:56:28.130Z,16.40
2019-02-27T13:57:59.273Z,16.40
2019-02-27T13:59:23.954Z,16.30
2019-02-27T14:00:53.513Z,16.40
2019-02-27T14:02:16.940Z,16.40
2019-02-27T14:03:45.641Z,16.40
2019-02-27T14:05:10.176Z,16.40
2019-02-27T14:06:42.954Z,16.40
2019-02-27T14:08:06.178Z,16.40
2019-02-27T14:09:31.815Z,16.40
2019-02-27T14:10:57.625Z,16.40
2019-02-27T14:12:23.045Z,16.30
2019-02-27T14:13:50.086Z,16.30
2019-02-27T14:15:15.996Z,16.30
2019-02-27T14:16:44.472Z,16.30
2019-02-27T14:18:13.363Z,16.30
2019-02-27T14:19:38.334Z,16.30
2019-02-27T14:21:06.515Z,16.30
2019-02-27T14:22:41.942Z,16.30
2019-02-27T14:24:09.632Z,16.30
2019-02-27T14:25:35.455Z,16.30
2019-02-27T14:27:00.958Z,16.30
2019-02-27T14:28:26.442Z,16.40
2019-02-27T14:29:52.009Z,16.40
2019-02-27T14:31:17.461Z,16.40
2019-02-27T14:32:45.044Z,16.40
2019-02-27T14:34:09.963Z,16.40
2019-02-27T14:35:36.445Z,16.40
2019-02-27T14:37:02.119Z,16.30
2019-02-27T14:38:29.245Z,16.30
2019-02-27T14:39:54.807Z,16.30
2019-02-27T14:41:23.087Z,16.40
2019-02-27T14:42:53.821Z,16.40
2019-02-27T14:44:16.767Z,16.40
2019-02-27T14:45:42.655Z,16.40
2019-02-27T14:47:08.177Z,16.40
2019-02-27T14:48:33.650Z,16.40
2019-02-27T14:50:00.159Z,16.40
2019-02-27T14:51:26.025Z,16.30
2019-02-27T14:52:51.975Z,16.30
2019-02-27T14:54:17.494Z,16.30
2019-02-27T14:55:43.139Z,16.30
2019-02-27T14:57:08.682Z,16.30
2019-02-27T14:58:34.122Z,16.30
2019-02-27T15:00:02.315Z,16.30
2019-02-27T15:01:28.972Z,16.30
2019-02-27T15:02:55.646Z,16.30
2019-02-27T15:04:21.640Z,16.30
2019-02-27T15:05:48.262Z,16.30
2019-02-27T15:07:13.778Z,16.30
2019-02-27T15:08:39.323Z,16.30
2019-02-27T15:10:07.264Z,16.20
2019-02-27T15:11:32.234Z,16.20
2019-02-27T15:12:57.778Z,16.20
2019-02-27T15:14:24.446Z,16.20
2019-02-27T15:15:50.003Z,16.20
2019-02-27T15:17:15.466Z,16.20
2019-02-27T15:18:40.950Z,16.20
2019-02-27T15:20:06.856Z,16.20
2019-02-27T15:21:32.688Z,16.20
2019-02-27T15:22:58.496Z,16.20
2019-02-27T15:24:23.954Z,16.20
2019-02-27T15:25:49.491Z,16.10
2019-02-27T15:27:14.945Z,16.10
2019-02-27T15:28:41.712Z,16.10
2019-02-27T15:30:08.145Z,16.10
2019-02-27T15:31:33.672Z,16.10
2019-02-27T15:33:03.824Z,16.10
2019-02-27T15:34:27.245Z,16.10
2019-02-27T15:35:55.289Z,16.10
2019-02-27T15:37:19.794Z,16.00
2019-02-27T15:38:46.025Z,16.10
2019-02-27T15:40:14.276Z,16.00
2019-02-27T15:41:39.912Z,16.00
2019-02-27T15:43:11.335Z,16.00
2019-02-27T15:44:34.521Z,16.00
2019-02-27T15:45:59.681Z,16.00
2019-02-27T15:47:27.006Z,16.00
2019-02-27T15:48:52.244Z,16.00
2019-02-27T15:50:22.558Z,16.00
2019-02-27T15:51:46.180Z,16.00
2019-02-27T15:53:14.522Z,16.00
2019-02-27T15:54:39.406Z,16.00
2019-02-27T15:56:05.419Z,16.00
2019-02-27T15:57:32.381Z,16.00
2019-02-27T15:58:59.372Z,16.00
2019-02-27T16:00:25.269Z,16.00
2019-02-27T16:01:54.147Z,16.00
2019-02-27T16:03:19.593Z,16.00
2019-02-27T16:04:45.106Z,16.00
2019-02-27T16:06:16.012Z,16.00
2019-02-27T16:07:51.866Z,16.00
2019-02-27T16:09:17.430Z,16.00
2019-02-27T16:10:54.928Z,16.00
2019-02-27T16:12:25.945Z,16.00
2019-02-27T16:13:52.160Z,16.00
2019-02-27T16:15:18.090Z,16.00
2019-02-27T16:16:43.927Z,16.00
2019-02-27T16:18:09.352Z,16.00
2019-02-27T16:19:34.775Z,15.90
2019-02-27T16:21:00.399Z,15.90
2019-02-27T16:22:28.460Z,15.90
2019-02-27T16:23:53.226Z,15.80
2019-02-27T16:25:20.233Z,15.80
2019-02-27T16:26:47.657Z,15.80
2019-02-27T16:28:16.416Z,15.80
2019-02-27T16:29:40.197Z,15.80
2019-02-27T16:31:06.251Z,15.90
2019-02-27T16:32:32.843Z,15.80
2019-02-27T16:33:58.539Z,15.80
2019-02-27T16:35:24.973Z,15.90
2019-02-27T16:36:50.841Z,15.90
2019-02-27T16:38:16.225Z,15.80
2019-02-27T16:39:45.491Z,15.90
2019-02-27T16:41:08.970Z,15.80
2019-02-27T16:42:36.417Z,15.90
2019-02-27T16:44:01.540Z,16.00
2019-02-27T16:45:32.343Z,16.00
2019-02-27T16:46:55.766Z,16.00
2019-02-27T16:48:21.224Z,16.00
2019-02-27T16:49:50.567Z,16.10
2019-02-27T16:51:14.394Z,16.10
2019-02-27T16:52:42.045Z,16.10
2019-02-27T16:54:06.920Z,16.10
2019-02-27T16:55:35.998Z,16.10
2019-02-27T16:56:59.415Z,16.10
2019-02-27T16:58:24.865Z,16.10
2019-02-27T16:59:50.307Z,16.10
2019-02-27T17:01:15.943Z,16.10
2019-02-27T17:02:41.426Z,16.10
2019-02-27T17:04:06.993Z,16.10
2019-02-27T17:05:32.486Z,16.10
2019-02-27T17:06:58.000Z,16.10
2019-02-27T17:08:23.446Z,16.10
2019-02-27T17:09:49.064Z,16.10
2019-02-27T17:11:14.502Z,16.10
2019-02-27T17:12:40.887Z,16.10
2019-02-27T17:14:06.987Z,16.10
2019-02-27T17:15:35.964Z,16.10
2019-02-27T17:16:59.740Z,16.10
2019-02-27T17:18:28.424Z,16.10
2019-02-27T17:19:53.027Z,16.10
2019-02-27T17:21:22.121Z,16.10
2019-02-27T17:22:46.012Z,16.10
2019-02-27T17:24:11.829Z,16.10
2019-02-27T17:25:37.295Z,16.10
2019-02-27T17:27:02.830Z,16.10
2019-02-27T17:28:28.243Z,16.10
2019-02-27T17:29:59.778Z,16.10
2019-02-27T17:31:22.272Z,16.10
2019-02-27T17:32:51.200Z,16.10
2019-02-27T17:34:16.818Z,16.00
2019-02-27T17:35:42.416Z,16.00
2019-02-27T17:37:08.555Z,16.00
2019-02-27T17:38:34.186Z,16.10
2019-02-27T17:40:02.236Z,16.00
2019-02-27T17:41:29.472Z,16.10
2019-02-27T17:42:55.435Z,16.10
2019-02-27T17:44:20.918Z,16.10
2019-02-27T17:45:47.552Z,16.10
2019-02-27T17:47:13.755Z,16.10
2019-02-27T17:48:39.492Z,16.10
2019-02-27T17:50:05.533Z,16.00
2019-02-27T17:51:31.295Z,16.00
2019-02-27T17:52:57.160Z,16.00
2019-02-27T17:54:23.108Z,16.00
2019-02-27T17:55:51.486Z,16.00
2019-02-27T17:57:17.026Z,16.00
2019-02-27T17:58:43.234Z,16.00
2019-02-27T18:00:12.920Z,16.10
2019-02-27T18:01:39.735Z,16.10
2019-02-27T18:03:07.258Z,16.10
2019-02-27T18:04:32.701Z,16.10
2019-02-27T18:06:00.230Z,16.10
2019-02-27T18:07:34.071Z,16.00
2019-02-27T18:08:52.956Z,16.10
2019-02-27T18:10:18.538Z,16.00
2019-02-27T18:11:45.272Z,16.00
2019-02-27T18:13:11.079Z,16.00
2019-02-27T18:14:37.715Z,16.00
2019-02-27T18:16:03.440Z,16.00
2019-02-27T18:17:29.231Z,16.00
2019-02-27T18:18:56.050Z,16.00
2019-02-27T18:20:25.609Z,16.00
2019-02-27T18:21:49.782Z,16.00
2019-02-27T18:23:15.190Z,16.00
2019-02-27T18:24:43.424Z,16.00
2019-02-27T18:26:08.830Z,16.00
2019-02-27T18:27:34.469Z,16.00
2019-02-27T18:29:07.565Z,16.00
2019-02-27T18:30:37.122Z,15.90
2019-02-27T18:32:07.776Z,16.00
2019-02-27T18:33:43.195Z,16.00
2019-02-27T18:35:09.020Z,16.00
2019-02-27T18:36:42.588Z,16.00
2019-02-27T18:38:01.708Z,15.90
2019-02-27T18:39:27.353Z,15.90
2019-02-27T18:40:52.872Z,15.90
2019-02-27T18:43:17.177Z,15.90
2019-02-27T18:45:17.890Z,15.90
2019-02-27T18:46:45.067Z,15.90
2019-02-27T18:48:11.591Z,15.90
2019-02-27T18:49:37.065Z,15.90
2019-02-27T18:51:02.576Z,15.90
2019-02-27T18:52:28.015Z,15.90
2019-02-27T18:53:53.453Z,15.90
2019-02-27T18:55:19.257Z,15.90
2019-02-27T18:56:50.581Z,15.90
2019-02-27T18:58:20.905Z,15.90
2019-02-27T18:59:53.146Z,15.90
2019-02-27T19:01:19.049Z,15.90
2019-02-27T19:02:52.349Z,15.80
2019-02-27T19:04:20.579Z,15.90